sensor_id;sensor_type;location;lat;lon;timestamp;P1;durP1;ratioP1;P2;durP2;ratioP2
18532;SDS011;9396;51.510;11.934;2022-08-04T00:02:34;2.00;;;1.80;;
18532;SDS011;9396;51.510;11.934;2022-08-04T00:05:22;2.87;;;2.10;;
18532;SDS011;9396;51.510;11.934;2022-08-04T00:08:04;4.63;;;2.07;;
18532;SDS011;9396;51.510;11.934;2022-08-04T00:10:33;2.80;;;2.50;;
18532;SDS011;9396;51.510;11.934;2022-08-04T00:13:03;3.57;;;2.10;;
18532;SDS011;9396;51.510;11.934;2022-08-04T00:15:31;2.43;;;1.97;;
18532;SDS011;9396;51.510;11.934;2022-08-04T00:17:59;3.33;;;2.27;;
18532;SDS011;9396;51.510;11.934;2022-08-04T00:20:29;3.00;;;2.20;;
18532;SDS011;9396;51.510;11.934;2022-08-04T00:22:58;4.33;;;2.07;;
18532;SDS011;9396;51.510;11.934;2022-08-04T00:25:26;3.63;;;2.27;;
18532;SDS011;9396;51.510;11.934;2022-08-04T00:27:55;3.23;;;2.17;;
18532;SDS011;9396;51.510;11.934;2022-08-04T00:30:22;3.03;;;2.00;;
18532;SDS011;9396;51.510;11.934;2022-08-04T00:32:49;2.63;;;2.00;;
18532;SDS011;9396;51.510;11.934;2022-08-04T00:35:17;4.40;;;2.40;;
18532;SDS011;9396;51.510;11.934;2022-08-04T00:37:44;2.43;;;2.23;;
18532;SDS011;9396;51.510;11.934;2022-08-04T00:40:13;5.73;;;2.30;;
18532;SDS011;9396;51.510;11.934;2022-08-04T00:42:48;3.97;;;2.63;;
18532;SDS011;9396;51.510;11.934;2022-08-04T00:45:29;4.47;;;2.47;;
18532;SDS011;9396;51.510;11.934;2022-08-04T00:48:29;7.30;;;2.50;;
18532;SDS011;9396;51.510;11.934;2022-08-04T00:51:09;7.57;;;2.37;;
18532;SDS011;9396;51.510;11.934;2022-08-04T00:53:43;3.50;;;2.40;;
18532;SDS011;9396;51.510;11.934;2022-08-04T00:56:34;2.40;;;2.20;;
18532;SDS011;9396;51.510;11.934;2022-08-04T00:59:12;5.23;;;2.70;;
18532;SDS011;9396;51.510;11.934;2022-08-04T01:01:58;3.97;;;2.37;;
18532;SDS011;9396;51.510;11.934;2022-08-04T01:04:28;4.90;;;2.37;;
18532;SDS011;9396;51.510;11.934;2022-08-04T01:07:20;4.63;;;2.33;;
18532;SDS011;9396;51.510;11.934;2022-08-04T01:10:12;3.80;;;2.60;;
18532;SDS011;9396;51.510;11.934;2022-08-04T01:12:53;3.87;;;2.10;;
18532;SDS011;9396;51.510;11.934;2022-08-04T01:15:38;4.17;;;2.60;;
18532;SDS011;9396;51.510;11.934;2022-08-04T01:18:10;3.23;;;2.50;;
18532;SDS011;9396;51.510;11.934;2022-08-04T01:20:47;3.83;;;2.60;;
18532;SDS011;9396;51.510;11.934;2022-08-04T01:23:38;3.57;;;2.57;;
18532;SDS011;9396;51.510;11.934;2022-08-04T01:26:45;2.80;;;2.50;;
18532;SDS011;9396;51.510;11.934;2022-08-04T01:29:17;3.27;;;2.27;;
18532;SDS011;9396;51.510;11.934;2022-08-04T01:31:54;2.93;;;2.07;;
18532;SDS011;9396;51.510;11.934;2022-08-04T01:34:27;3.50;;;2.57;;
18532;SDS011;9396;51.510;11.934;2022-08-04T01:36:58;4.10;;;2.83;;
18532;SDS011;9396;51.510;11.934;2022-08-04T01:39:32;4.43;;;2.50;;
18532;SDS011;9396;51.510;11.934;2022-08-04T01:42:06;2.43;;;2.23;;
18532;SDS011;9396;51.510;11.934;2022-08-04T01:44:36;2.77;;;2.47;;
18532;SDS011;9396;51.510;11.934;2022-08-04T01:47:05;2.93;;;2.60;;
18532;SDS011;9396;51.510;11.934;2022-08-04T01:49:33;4.33;;;2.43;;
18532;SDS011;9396;51.510;11.934;2022-08-04T01:52:02;6.07;;;2.73;;
18532;SDS011;9396;51.510;11.934;2022-08-04T01:54:34;3.27;;;2.50;;
18532;SDS011;9396;51.510;11.934;2022-08-04T01:57:04;5.13;;;2.70;;
18532;SDS011;9396;51.510;11.934;2022-08-04T01:59:31;4.43;;;2.60;;
18532;SDS011;9396;51.510;11.934;2022-08-04T02:02:00;2.97;;;2.57;;
18532;SDS011;9396;51.510;11.934;2022-08-04T02:04:27;2.60;;;2.40;;
18532;SDS011;9396;51.510;11.934;2022-08-04T02:06:58;3.47;;;2.80;;
18532;SDS011;9396;51.510;11.934;2022-08-04T02:09:30;7.43;;;2.50;;
18532;SDS011;9396;51.510;11.934;2022-08-04T02:12:04;5.00;;;2.40;;
18532;SDS011;9396;51.510;11.934;2022-08-04T02:14:48;3.77;;;2.63;;
18532;SDS011;9396;51.510;11.934;2022-08-04T02:17:24;3.33;;;2.50;;
18532;SDS011;9396;51.510;11.934;2022-08-04T02:19:58;3.73;;;2.67;;
18532;SDS011;9396;51.510;11.934;2022-08-04T02:22:32;4.07;;;2.43;;
18532;SDS011;9396;51.510;11.934;2022-08-04T02:25:02;4.33;;;2.67;;
18532;SDS011;9396;51.510;11.934;2022-08-04T02:27:34;6.53;;;2.70;;
18532;SDS011;9396;51.510;11.934;2022-08-04T02:30:20;4.67;;;2.70;;
18532;SDS011;9396;51.510;11.934;2022-08-04T02:32:53;4.23;;;2.50;;
18532;SDS011;9396;51.510;11.934;2022-08-04T02:35:27;3.47;;;2.77;;
18532;SDS011;9396;51.510;11.934;2022-08-04T02:38:00;3.07;;;2.77;;
18532;SDS011;9396;51.510;11.934;2022-08-04T02:40:36;7.07;;;2.63;;
18532;SDS011;9396;51.510;11.934;2022-08-04T02:43:07;3.27;;;2.70;;
18532;SDS011;9396;51.510;11.934;2022-08-04T02:45:35;4.13;;;2.70;;
18532;SDS011;9396;51.510;11.934;2022-08-04T02:48:04;4.23;;;2.90;;
18532;SDS011;9396;51.510;11.934;2022-08-04T02:50:35;5.57;;;2.80;;
18532;SDS011;9396;51.510;11.934;2022-08-04T02:53:03;4.73;;;2.60;;
18532;SDS011;9396;51.510;11.934;2022-08-04T02:55:32;3.80;;;3.10;;
18532;SDS011;9396;51.510;11.934;2022-08-04T02:58:01;3.83;;;2.80;;
18532;SDS011;9396;51.510;11.934;2022-08-04T03:00:28;2.83;;;2.47;;
18532;SDS011;9396;51.510;11.934;2022-08-04T03:02:58;2.97;;;2.67;;
18532;SDS011;9396;51.510;11.934;2022-08-04T03:05:36;3.73;;;2.70;;
18532;SDS011;9396;51.510;11.934;2022-08-04T03:08:36;3.47;;;2.63;;
18532;SDS011;9396;51.510;11.934;2022-08-04T03:11:30;2.97;;;2.67;;
18532;SDS011;9396;51.510;11.934;2022-08-04T03:14:21;3.90;;;2.87;;
18532;SDS011;9396;51.510;11.934;2022-08-04T03:17:07;3.27;;;2.90;;
18532;SDS011;9396;51.510;11.934;2022-08-04T03:19:57;10.30;;;2.67;;
18532;SDS011;9396;51.510;11.934;2022-08-04T03:25:56;4.60;;;2.80;;
18532;SDS011;9396;51.510;11.934;2022-08-04T03:28:55;5.73;;;2.93;;
18532;SDS011;9396;51.510;11.934;2022-08-04T03:31:52;3.40;;;2.53;;
18532;SDS011;9396;51.510;11.934;2022-08-04T03:35:02;7.03;;;2.97;;
18532;SDS011;9396;51.510;11.934;2022-08-04T03:37:38;4.50;;;2.80;;
18532;SDS011;9396;51.510;11.934;2022-08-04T03:40:33;3.50;;;2.70;;
18532;SDS011;9396;51.510;11.934;2022-08-04T03:49:26;6.93;;;2.73;;
18532;SDS011;9396;51.510;11.934;2022-08-04T03:52:12;5.57;;;2.83;;
18532;SDS011;9396;51.510;11.934;2022-08-04T03:55:25;6.63;;;2.53;;
18532;SDS011;9396;51.510;11.934;2022-08-04T03:58:14;3.07;;;2.77;;
18532;SDS011;9396;51.510;11.934;2022-08-04T04:01:17;4.87;;;2.40;;
18532;SDS011;9396;51.510;11.934;2022-08-04T04:04:08;4.73;;;2.70;;
18532;SDS011;9396;51.510;11.934;2022-08-04T04:07:04;3.93;;;2.60;;
18532;SDS011;9396;51.510;11.934;2022-08-04T04:10:02;6.37;;;2.70;;
18532;SDS011;9396;51.510;11.934;2022-08-04T04:13:01;6.77;;;2.77;;
18532;SDS011;9396;51.510;11.934;2022-08-04T04:15:58;7.30;;;2.67;;
18532;SDS011;9396;51.510;11.934;2022-08-04T04:18:52;3.93;;;2.63;;
18532;SDS011;9396;51.510;11.934;2022-08-04T04:24:43;3.60;;;2.43;;
18532;SDS011;9396;51.510;11.934;2022-08-04T04:27:23;6.53;;;3.20;;
18532;SDS011;9396;51.510;11.934;2022-08-04T04:30:04;4.73;;;2.90;;
18532;SDS011;9396;51.510;11.934;2022-08-04T04:32:51;6.83;;;2.70;;
18532;SDS011;9396;51.510;11.934;2022-08-04T04:35:36;4.30;;;2.80;;
18532;SDS011;9396;51.510;11.934;2022-08-04T04:38:18;8.33;;;2.80;;
18532;SDS011;9396;51.510;11.934;2022-08-04T04:40:57;5.53;;;2.83;;
18532;SDS011;9396;51.510;11.934;2022-08-04T04:43:38;2.90;;;2.57;;
18532;SDS011;9396;51.510;11.934;2022-08-04T04:46:33;3.50;;;2.43;;
18532;SDS011;9396;51.510;11.934;2022-08-04T04:49:10;6.30;;;3.07;;
18532;SDS011;9396;51.510;11.934;2022-08-04T04:51:47;4.27;;;2.87;;
18532;SDS011;9396;51.510;11.934;2022-08-04T04:54:19;4.97;;;3.10;;
18532;SDS011;9396;51.510;11.934;2022-08-04T04:56:52;5.07;;;3.10;;
18532;SDS011;9396;51.510;11.934;2022-08-04T04:59:30;5.17;;;3.30;;
18532;SDS011;9396;51.510;11.934;2022-08-04T05:02:10;7.47;;;2.80;;
18532;SDS011;9396;51.510;11.934;2022-08-04T05:05:09;7.60;;;3.00;;
18532;SDS011;9396;51.510;11.934;2022-08-04T05:11:13;4.43;;;3.23;;
18532;SDS011;9396;51.510;11.934;2022-08-04T05:13:57;3.70;;;3.30;;
18532;SDS011;9396;51.510;11.934;2022-08-04T05:16:31;7.60;;;3.10;;
18532;SDS011;9396;51.510;11.934;2022-08-04T05:19:02;7.93;;;3.30;;
18532;SDS011;9396;51.510;11.934;2022-08-04T05:21:42;5.57;;;2.93;;
18532;SDS011;9396;51.510;11.934;2022-08-04T05:24:13;3.23;;;2.90;;
18532;SDS011;9396;51.510;11.934;2022-08-04T05:26:44;4.30;;;2.80;;
18532;SDS011;9396;51.510;11.934;2022-08-04T05:29:16;5.23;;;2.77;;
18532;SDS011;9396;51.510;11.934;2022-08-04T05:31:51;3.00;;;2.60;;
18532;SDS011;9396;51.510;11.934;2022-08-04T05:34:20;3.63;;;3.00;;
18532;SDS011;9396;51.510;11.934;2022-08-04T05:36:54;3.97;;;2.50;;
18532;SDS011;9396;51.510;11.934;2022-08-04T05:39:23;4.17;;;2.80;;
18532;SDS011;9396;51.510;11.934;2022-08-04T05:41:52;4.97;;;2.70;;
18532;SDS011;9396;51.510;11.934;2022-08-04T05:44:21;3.90;;;2.50;;
18532;SDS011;9396;51.510;11.934;2022-08-04T05:46:50;3.33;;;2.60;;
18532;SDS011;9396;51.510;11.934;2022-08-04T05:49:20;4.17;;;2.73;;
18532;SDS011;9396;51.510;11.934;2022-08-04T05:51:48;4.03;;;2.73;;
18532;SDS011;9396;51.510;11.934;2022-08-04T05:54:17;4.43;;;2.47;;
18532;SDS011;9396;51.510;11.934;2022-08-04T05:56:46;3.73;;;2.70;;
18532;SDS011;9396;51.510;11.934;2022-08-04T05:59:15;11.33;;;2.63;;
18532;SDS011;9396;51.510;11.934;2022-08-04T06:01:45;4.50;;;2.40;;
18532;SDS011;9396;51.510;11.934;2022-08-04T06:04:13;5.03;;;2.50;;
18532;SDS011;9396;51.510;11.934;2022-08-04T06:06:42;4.17;;;2.70;;
18532;SDS011;9396;51.510;11.934;2022-08-04T06:09:10;4.57;;;2.90;;
18532;SDS011;9396;51.510;11.934;2022-08-04T06:11:38;5.03;;;2.47;;
18532;SDS011;9396;51.510;11.934;2022-08-04T06:14:07;9.60;;;2.77;;
18532;SDS011;9396;51.510;11.934;2022-08-04T06:16:37;21.33;;;3.40;;
18532;SDS011;9396;51.510;11.934;2022-08-04T06:19:07;4.73;;;3.10;;
18532;SDS011;9396;51.510;11.934;2022-08-04T06:21:36;6.67;;;2.80;;
18532;SDS011;9396;51.510;11.934;2022-08-04T06:24:06;4.40;;;2.50;;
18532;SDS011;9396;51.510;11.934;2022-08-04T06:26:36;8.13;;;3.10;;
18532;SDS011;9396;51.510;11.934;2022-08-04T06:29:05;5.87;;;2.67;;
18532;SDS011;9396;51.510;11.934;2022-08-04T06:31:41;2.93;;;2.10;;
18532;SDS011;9396;51.510;11.934;2022-08-04T06:34:11;7.07;;;2.97;;
18532;SDS011;9396;51.510;11.934;2022-08-04T06:36:41;5.43;;;2.70;;
18532;SDS011;9396;51.510;11.934;2022-08-04T06:39:09;4.97;;;2.70;;
18532;SDS011;9396;51.510;11.934;2022-08-04T06:41:38;4.83;;;2.93;;
18532;SDS011;9396;51.510;11.934;2022-08-04T06:44:06;11.60;;;2.97;;
18532;SDS011;9396;51.510;11.934;2022-08-04T06:46:36;7.50;;;2.70;;
18532;SDS011;9396;51.510;11.934;2022-08-04T06:49:05;8.43;;;3.13;;
18532;SDS011;9396;51.510;11.934;2022-08-04T06:51:33;3.90;;;2.80;;
18532;SDS011;9396;51.510;11.934;2022-08-04T06:54:02;7.03;;;2.83;;
18532;SDS011;9396;51.510;11.934;2022-08-04T06:56:30;10.67;;;2.83;;
18532;SDS011;9396;51.510;11.934;2022-08-04T06:59:01;6.10;;;2.80;;
18532;SDS011;9396;51.510;11.934;2022-08-04T07:01:29;3.60;;;2.50;;
18532;SDS011;9396;51.510;11.934;2022-08-04T07:03:56;4.10;;;2.72;;
18532;SDS011;9396;51.510;11.934;2022-08-04T07:06:24;3.92;;;2.50;;
18532;SDS011;9396;51.510;11.934;2022-08-04T07:08:51;5.25;;;2.63;;
18532;SDS011;9396;51.510;11.934;2022-08-04T07:11:20;3.53;;;2.58;;
18532;SDS011;9396;51.510;11.934;2022-08-04T07:13:47;6.68;;;2.22;;
18532;SDS011;9396;51.510;11.934;2022-08-04T07:16:17;3.55;;;2.40;;
18532;SDS011;9396;51.510;11.934;2022-08-04T07:18:45;4.60;;;2.50;;
18532;SDS011;9396;51.510;11.934;2022-08-04T07:21:17;3.85;;;2.25;;
18532;SDS011;9396;51.510;11.934;2022-08-04T07:23:45;3.20;;;2.42;;
18532;SDS011;9396;51.510;11.934;2022-08-04T07:26:12;4.88;;;2.10;;
18532;SDS011;9396;51.510;11.934;2022-08-04T07:28:41;6.95;;;2.45;;
18532;SDS011;9396;51.510;11.934;2022-08-04T07:31:12;8.70;;;2.20;;
18532;SDS011;9396;51.510;11.934;2022-08-04T07:33:43;5.33;;;2.27;;
18532;SDS011;9396;51.510;11.934;2022-08-04T07:36:13;3.27;;;1.87;;
18532;SDS011;9396;51.510;11.934;2022-08-04T07:38:40;5.70;;;2.80;;
18532;SDS011;9396;51.510;11.934;2022-08-04T07:41:07;7.13;;;2.20;;
18532;SDS011;9396;51.510;11.934;2022-08-04T07:43:35;7.50;;;2.47;;
18532;SDS011;9396;51.510;11.934;2022-08-04T07:46:03;3.43;;;2.47;;
18532;SDS011;9396;51.510;11.934;2022-08-04T07:48:29;3.73;;;2.10;;
18532;SDS011;9396;51.510;11.934;2022-08-04T07:50:58;7.83;;;2.30;;
18532;SDS011;9396;51.510;11.934;2022-08-04T07:53:25;3.83;;;2.23;;
18532;SDS011;9396;51.510;11.934;2022-08-04T07:55:52;11.27;;;2.30;;
18532;SDS011;9396;51.510;11.934;2022-08-04T07:58:21;2.40;;;2.10;;
18532;SDS011;9396;51.510;11.934;2022-08-04T08:00:47;4.70;;;2.33;;
18532;SDS011;9396;51.510;11.934;2022-08-04T08:03:14;3.27;;;1.83;;
18532;SDS011;9396;51.510;11.934;2022-08-04T08:05:41;3.90;;;2.20;;
18532;SDS011;9396;51.510;11.934;2022-08-04T08:08:10;7.03;;;2.30;;
18532;SDS011;9396;51.510;11.934;2022-08-04T08:10:37;7.00;;;2.20;;
18532;SDS011;9396;51.510;11.934;2022-08-04T08:13:05;6.43;;;2.07;;
18532;SDS011;9396;51.510;11.934;2022-08-04T08:15:32;6.37;;;2.20;;
18532;SDS011;9396;51.510;11.934;2022-08-04T08:18:00;6.33;;;1.67;;
18532;SDS011;9396;51.510;11.934;2022-08-04T08:20:28;3.80;;;1.83;;
18532;SDS011;9396;51.510;11.934;2022-08-04T08:22:55;3.53;;;1.93;;
18532;SDS011;9396;51.510;11.934;2022-08-04T08:25:24;5.17;;;2.00;;
18532;SDS011;9396;51.510;11.934;2022-08-04T08:27:51;5.73;;;1.97;;
18532;SDS011;9396;51.510;11.934;2022-08-04T08:30:18;4.13;;;1.80;;
18532;SDS011;9396;51.510;11.934;2022-08-04T08:32:44;3.10;;;2.00;;
18532;SDS011;9396;51.510;11.934;2022-08-04T08:35:11;4.53;;;2.10;;
18532;SDS011;9396;51.510;11.934;2022-08-04T08:37:40;7.80;;;2.10;;
18532;SDS011;9396;51.510;11.934;2022-08-04T08:40:20;5.47;;;2.27;;
18532;SDS011;9396;51.510;11.934;2022-08-04T08:43:14;3.20;;;1.67;;
18532;SDS011;9396;51.510;11.934;2022-08-04T08:49:01;2.60;;;1.90;;
18532;SDS011;9396;51.510;11.934;2022-08-04T08:51:54;5.53;;;1.77;;
18532;SDS011;9396;51.510;11.934;2022-08-04T08:54:36;3.33;;;2.10;;
18532;SDS011;9396;51.510;11.934;2022-08-04T08:57:38;4.97;;;1.93;;
18532;SDS011;9396;51.510;11.934;2022-08-04T09:00:13;4.10;;;2.00;;
18532;SDS011;9396;51.510;11.934;2022-08-04T09:02:53;2.27;;;1.70;;
18532;SDS011;9396;51.510;11.934;2022-08-04T09:08:59;2.87;;;1.90;;
18532;SDS011;9396;51.510;11.934;2022-08-04T09:11:36;3.20;;;1.93;;
18532;SDS011;9396;51.510;11.934;2022-08-04T09:14:13;2.53;;;1.70;;
18532;SDS011;9396;51.510;11.934;2022-08-04T09:16:48;3.13;;;1.83;;
18532;SDS011;9396;51.510;11.934;2022-08-04T09:19:22;2.97;;;1.50;;
18532;SDS011;9396;51.510;11.934;2022-08-04T09:21:59;2.60;;;1.60;;
18532;SDS011;9396;51.510;11.934;2022-08-04T09:24:30;3.43;;;1.67;;
18532;SDS011;9396;51.510;11.934;2022-08-04T09:27:09;5.03;;;1.87;;
18532;SDS011;9396;51.510;11.934;2022-08-04T09:29:46;3.90;;;1.70;;
18532;SDS011;9396;51.510;11.934;2022-08-04T09:32:20;2.60;;;1.60;;
18532;SDS011;9396;51.510;11.934;2022-08-04T09:34:54;4.40;;;1.57;;
18532;SDS011;9396;51.510;11.934;2022-08-04T09:37:30;2.10;;;1.47;;
18532;SDS011;9396;51.510;11.934;2022-08-04T09:40:03;2.80;;;1.77;;
18532;SDS011;9396;51.510;11.934;2022-08-04T09:42:37;3.97;;;2.10;;
18532;SDS011;9396;51.510;11.934;2022-08-04T09:45:18;4.43;;;1.73;;
18532;SDS011;9396;51.510;11.934;2022-08-04T09:47:54;4.03;;;1.50;;
18532;SDS011;9396;51.510;11.934;2022-08-04T09:50:31;4.33;;;1.87;;
18532;SDS011;9396;51.510;11.934;2022-08-04T09:53:04;3.40;;;1.67;;
18532;SDS011;9396;51.510;11.934;2022-08-04T09:55:41;8.40;;;1.70;;
18532;SDS011;9396;51.510;11.934;2022-08-04T09:58:25;2.30;;;1.47;;
18532;SDS011;9396;51.510;11.934;2022-08-04T10:01:07;1.90;;;1.57;;
18532;SDS011;9396;51.510;11.934;2022-08-04T10:03:36;1.93;;;1.73;;
18532;SDS011;9396;51.510;11.934;2022-08-04T10:06:08;6.10;;;1.57;;
18532;SDS011;9396;51.510;11.934;2022-08-04T10:08:53;2.83;;;1.40;;
18532;SDS011;9396;51.510;11.934;2022-08-04T10:11:35;3.33;;;1.80;;
18532;SDS011;9396;51.510;11.934;2022-08-04T10:14:12;2.20;;;1.30;;
18532;SDS011;9396;51.510;11.934;2022-08-04T10:16:52;11.70;;;1.87;;
18532;SDS011;9396;51.510;11.934;2022-08-04T10:19:25;4.17;;;1.40;;
18532;SDS011;9396;51.510;11.934;2022-08-04T10:21:59;5.00;;;1.87;;
18532;SDS011;9396;51.510;11.934;2022-08-04T10:24:35;17.50;;;2.00;;
18532;SDS011;9396;51.510;11.934;2022-08-04T10:27:21;1.53;;;1.43;;
18532;SDS011;9396;51.510;11.934;2022-08-04T10:29:53;2.23;;;1.53;;
18532;SDS011;9396;51.510;11.934;2022-08-04T10:32:27;5.10;;;1.37;;
18532;SDS011;9396;51.510;11.934;2022-08-04T10:35:00;2.30;;;1.40;;
18532;SDS011;9396;51.510;11.934;2022-08-04T10:37:35;1.87;;;1.20;;
18532;SDS011;9396;51.510;11.934;2022-08-04T10:40:09;2.90;;;1.30;;
18532;SDS011;9396;51.510;11.934;2022-08-04T10:42:59;2.83;;;1.30;;
18532;SDS011;9396;51.510;11.934;2022-08-04T10:45:32;3.73;;;1.50;;
18532;SDS011;9396;51.510;11.934;2022-08-04T10:48:10;1.23;;;1.13;;
18532;SDS011;9396;51.510;11.934;2022-08-04T10:50:48;1.20;;;1.10;;
18532;SDS011;9396;51.510;11.934;2022-08-04T10:53:29;3.40;;;1.27;;
18532;SDS011;9396;51.510;11.934;2022-08-04T10:56:01;4.57;;;1.37;;
18532;SDS011;9396;51.510;11.934;2022-08-04T10:58:32;1.33;;;1.20;;
18532;SDS011;9396;51.510;11.934;2022-08-04T11:01:04;3.50;;;1.40;;
18532;SDS011;9396;51.510;11.934;2022-08-04T11:03:42;6.50;;;1.40;;
18532;SDS011;9396;51.510;11.934;2022-08-04T11:06:14;3.80;;;1.20;;
18532;SDS011;9396;51.510;11.934;2022-08-04T11:08:46;2.40;;;1.50;;
18532;SDS011;9396;51.510;11.934;2022-08-04T11:11:20;1.40;;;1.30;;
18532;SDS011;9396;51.510;11.934;2022-08-04T11:13:52;2.37;;;1.33;;
18532;SDS011;9396;51.510;11.934;2022-08-04T11:16:26;2.03;;;1.10;;
18532;SDS011;9396;51.510;11.934;2022-08-04T11:19:14;1.10;;;1.00;;
18532;SDS011;9396;51.510;11.934;2022-08-04T11:21:51;1.70;;;1.40;;
18532;SDS011;9396;51.510;11.934;2022-08-04T11:24:22;7.20;;;1.33;;
18532;SDS011;9396;51.510;11.934;2022-08-04T11:26:57;2.80;;;1.37;;
18532;SDS011;9396;51.510;11.934;2022-08-04T11:29:28;3.17;;;1.30;;
18532;SDS011;9396;51.510;11.934;2022-08-04T11:32:02;1.43;;;1.10;;
18532;SDS011;9396;51.510;11.934;2022-08-04T11:34:34;2.93;;;1.23;;
18532;SDS011;9396;51.510;11.934;2022-08-04T11:37:05;1.40;;;1.20;;
18532;SDS011;9396;51.510;11.934;2022-08-04T11:39:41;3.83;;;1.00;;
18532;SDS011;9396;51.510;11.934;2022-08-04T11:42:12;4.37;;;1.40;;
18532;SDS011;9396;51.510;11.934;2022-08-04T11:44:46;3.20;;;1.20;;
18532;SDS011;9396;51.510;11.934;2022-08-04T11:47:20;1.33;;;1.23;;
18532;SDS011;9396;51.510;11.934;2022-08-04T11:49:57;6.53;;;1.37;;
18532;SDS011;9396;51.510;11.934;2022-08-04T11:52:28;2.30;;;1.30;;
18532;SDS011;9396;51.510;11.934;2022-08-04T11:54:57;1.20;;;1.10;;
18532;SDS011;9396;51.510;11.934;2022-08-04T11:57:28;2.50;;;1.27;;
18532;SDS011;9396;51.510;11.934;2022-08-04T11:59:55;1.90;;;1.20;;
18532;SDS011;9396;51.510;11.934;2022-08-04T12:02:33;1.83;;;1.20;;
18532;SDS011;9396;51.510;11.934;2022-08-04T12:05:14;2.40;;;1.03;;
18532;SDS011;9396;51.510;11.934;2022-08-04T12:07:48;1.20;;;1.00;;
18532;SDS011;9396;51.510;11.934;2022-08-04T12:10:25;1.30;;;1.20;;
18532;SDS011;9396;51.510;11.934;2022-08-04T12:13:05;1.60;;;1.30;;
18532;SDS011;9396;51.510;11.934;2022-08-04T12:15:44;1.70;;;1.13;;
18532;SDS011;9396;51.510;11.934;2022-08-04T12:18:20;2.70;;;1.10;;
18532;SDS011;9396;51.510;11.934;2022-08-04T12:20:54;1.30;;;1.10;;
18532;SDS011;9396;51.510;11.934;2022-08-04T12:23:25;1.47;;;1.20;;
18532;SDS011;9396;51.510;11.934;2022-08-04T12:25:59;4.53;;;1.40;;
18532;SDS011;9396;51.510;11.934;2022-08-04T12:28:30;2.80;;;1.13;;
18532;SDS011;9396;51.510;11.934;2022-08-04T12:31:01;3.27;;;1.10;;
18532;SDS011;9396;51.510;11.934;2022-08-04T12:33:31;3.67;;;1.10;;
18532;SDS011;9396;51.510;11.934;2022-08-04T12:36:08;1.83;;;1.20;;
18532;SDS011;9396;51.510;11.934;2022-08-04T12:38:46;1.77;;;1.27;;
18532;SDS011;9396;51.510;11.934;2022-08-04T12:41:20;1.17;;;1.07;;
18532;SDS011;9396;51.510;11.934;2022-08-04T12:43:48;2.60;;;1.20;;
18532;SDS011;9396;51.510;11.934;2022-08-04T12:46:19;0.80;;;0.80;;
18532;SDS011;9396;51.510;11.934;2022-08-04T12:48:49;1.20;;;1.00;;
18532;SDS011;9396;51.510;11.934;2022-08-04T12:51:17;1.63;;;1.07;;
18532;SDS011;9396;51.510;11.934;2022-08-04T12:53:47;5.13;;;1.33;;
18532;SDS011;9396;51.510;11.934;2022-08-04T12:56:16;3.20;;;1.23;;
18532;SDS011;9396;51.510;11.934;2022-08-04T12:58:51;2.10;;;1.30;;
18532;SDS011;9396;51.510;11.934;2022-08-04T13:01:20;8.70;;;1.43;;
18532;SDS011;9396;51.510;11.934;2022-08-04T13:03:49;2.00;;;1.10;;
18532;SDS011;9396;51.510;11.934;2022-08-04T13:06:23;1.10;;;1.00;;
18532;SDS011;9396;51.510;11.934;2022-08-04T13:08:51;1.10;;;1.00;;
18532;SDS011;9396;51.510;11.934;2022-08-04T13:11:20;4.33;;;1.10;;
18532;SDS011;9396;51.510;11.934;2022-08-04T13:13:50;2.03;;;1.10;;
18532;SDS011;9396;51.510;11.934;2022-08-04T13:16:27;2.50;;;1.30;;
18532;SDS011;9396;51.510;11.934;2022-08-04T13:18:55;6.13;;;1.30;;
18532;SDS011;9396;51.510;11.934;2022-08-04T13:21:25;7.13;;;1.30;;
18532;SDS011;9396;51.510;11.934;2022-08-04T13:24:01;5.00;;;1.30;;
18532;SDS011;9396;51.510;11.934;2022-08-04T13:26:31;5.43;;;1.27;;
18532;SDS011;9396;51.510;11.934;2022-08-04T13:29:02;1.40;;;1.07;;
18532;SDS011;9396;51.510;11.934;2022-08-04T13:31:34;1.40;;;1.10;;
18532;SDS011;9396;51.510;11.934;2022-08-04T13:34:03;2.73;;;1.37;;
18532;SDS011;9396;51.510;11.934;2022-08-04T13:36:36;1.40;;;1.30;;
18532;SDS011;9396;51.510;11.934;2022-08-04T13:39:04;4.23;;;1.00;;
18532;SDS011;9396;51.510;11.934;2022-08-04T13:41:33;1.63;;;1.00;;
18532;SDS011;9396;51.510;11.934;2022-08-04T13:44:05;3.93;;;0.97;;
18532;SDS011;9396;51.510;11.934;2022-08-04T13:46:37;2.30;;;1.23;;
18532;SDS011;9396;51.510;11.934;2022-08-04T13:49:08;1.43;;;1.30;;
18532;SDS011;9396;51.510;11.934;2022-08-04T13:51:37;2.77;;;1.20;;
18532;SDS011;9396;51.510;11.934;2022-08-04T13:54:05;2.10;;;1.07;;
18532;SDS011;9396;51.510;11.934;2022-08-04T13:56:35;1.60;;;1.10;;
18532;SDS011;9396;51.510;11.934;2022-08-04T13:59:05;2.03;;;1.20;;
18532;SDS011;9396;51.510;11.934;2022-08-04T14:01:36;1.40;;;1.20;;
18532;SDS011;9396;51.510;11.934;2022-08-04T14:04:08;3.67;;;1.10;;
18532;SDS011;9396;51.510;11.934;2022-08-04T14:06:45;1.30;;;1.10;;
18532;SDS011;9396;51.510;11.934;2022-08-04T14:09:15;1.63;;;1.20;;
18532;SDS011;9396;51.510;11.934;2022-08-04T14:11:44;1.93;;;1.00;;
18532;SDS011;9396;51.510;11.934;2022-08-04T14:14:13;3.67;;;1.20;;
18532;SDS011;9396;51.510;11.934;2022-08-04T14:16:53;3.10;;;1.57;;
18532;SDS011;9396;51.510;11.934;2022-08-04T14:19:24;2.77;;;1.43;;
18532;SDS011;9396;51.510;11.934;2022-08-04T14:21:53;2.50;;;1.10;;
18532;SDS011;9396;51.510;11.934;2022-08-04T14:24:23;1.40;;;1.20;;
18532;SDS011;9396;51.510;11.934;2022-08-04T14:26:50;3.40;;;1.30;;
18532;SDS011;9396;51.510;11.934;2022-08-04T14:29:18;2.93;;;1.13;;
18532;SDS011;9396;51.510;11.934;2022-08-04T14:31:48;3.80;;;1.50;;
18532;SDS011;9396;51.510;11.934;2022-08-04T14:34:25;3.10;;;1.73;;
18532;SDS011;9396;51.510;11.934;2022-08-04T14:36:53;1.47;;;1.30;;
18532;SDS011;9396;51.510;11.934;2022-08-04T14:39:36;2.43;;;1.20;;
18532;SDS011;9396;51.510;11.934;2022-08-04T14:42:04;2.33;;;1.40;;
18532;SDS011;9396;51.510;11.934;2022-08-04T14:44:32;2.17;;;1.00;;
18532;SDS011;9396;51.510;11.934;2022-08-04T14:47:17;1.80;;;1.40;;
18532;SDS011;9396;51.510;11.934;2022-08-04T14:49:52;1.20;;;1.10;;
18532;SDS011;9396;51.510;11.934;2022-08-04T14:52:23;3.63;;;1.10;;
18532;SDS011;9396;51.510;11.934;2022-08-04T14:54:50;1.80;;;1.30;;
18532;SDS011;9396;51.510;11.934;2022-08-04T14:57:17;1.43;;;1.30;;
18532;SDS011;9396;51.510;11.934;2022-08-04T14:59:47;3.07;;;1.67;;
18532;SDS011;9396;51.510;11.934;2022-08-04T15:02:15;1.73;;;1.33;;
18532;SDS011;9396;51.510;11.934;2022-08-04T15:04:42;2.00;;;1.00;;
18532;SDS011;9396;51.510;11.934;2022-08-04T15:07:11;1.30;;;1.20;;
18532;SDS011;9396;51.510;11.934;2022-08-04T15:09:39;1.83;;;1.20;;
18532;SDS011;9396;51.510;11.934;2022-08-04T15:12:07;6.17;;;1.17;;
18532;SDS011;9396;51.510;11.934;2022-08-04T15:14:36;5.40;;;1.20;;
18532;SDS011;9396;51.510;11.934;2022-08-04T15:17:02;3.33;;;1.40;;
18532;SDS011;9396;51.510;11.934;2022-08-04T15:19:30;1.57;;;1.20;;
18532;SDS011;9396;51.510;11.934;2022-08-04T15:21:57;2.60;;;1.20;;
18532;SDS011;9396;51.510;11.934;2022-08-04T15:24:24;1.27;;;1.10;;
18532;SDS011;9396;51.510;11.934;2022-08-04T15:26:52;2.67;;;1.10;;
18532;SDS011;9396;51.510;11.934;2022-08-04T15:29:22;2.97;;;1.00;;
18532;SDS011;9396;51.510;11.934;2022-08-04T15:31:54;1.57;;;1.20;;
18532;SDS011;9396;51.510;11.934;2022-08-04T15:34:22;1.47;;;1.10;;
18532;SDS011;9396;51.510;11.934;2022-08-04T15:36:51;1.53;;;1.07;;
18532;SDS011;9396;51.510;11.934;2022-08-04T15:39:21;1.27;;;1.17;;
18532;SDS011;9396;51.510;11.934;2022-08-04T15:41:59;1.33;;;1.03;;
18532;SDS011;9396;51.510;11.934;2022-08-04T15:44:45;2.30;;;1.13;;
18532;SDS011;9396;51.510;11.934;2022-08-04T15:47:22;1.30;;;1.13;;
18532;SDS011;9396;51.510;11.934;2022-08-04T15:50:01;3.67;;;1.40;;
18532;SDS011;9396;51.510;11.934;2022-08-04T15:55:34;2.00;;;1.10;;
18532;SDS011;9396;51.510;11.934;2022-08-04T15:58:03;1.47;;;1.13;;